»·PEaware :: N16RD KSNA-KAVX

N16RD :: KSNA-KAVX

FLIGHT INFORMATION

Flight Status: Arrived
Operator: Privately registered:
United States
More flights under this callsign
Pilot: Brett B. (12105)
Aircraft: CSA SportCruiser
(CRUZ)
More flights by this aircraft type
Origin: KSNA John Wayne-Orange Co
United States
Destination: KAVX Catalina
United States
More flights between these airports :: More routes between these airports
Route: SLI V21 SXC
File this flight plan on PilotEdge
Remarks: I-7 Test
Altitude:
(Current/Filed)
4,000ft
Speed:
(Current/Filed)
120kts
Departed: 23-Oct-17 09:26 PM
Arrived: 23-Oct-17 09:55 PM
Distance/Time
Traveled:
16nm/0:29
Distance/Time
To Go:
Arrived

Flight Plot

Page will automatically refresh every two minutes.


Map Options




Map Legend


Flown Route
Filed Route
Departure Airport
Arrival Airport
Navaid (VOR, NDB)
Fix

Horizontal Profiles

Position Reports

Time Latitude Longitude Heading Altitude Ground
Speed
23-Oct-17 21:02 33.675273 -117.871282 219 59ft 0kts
23-Oct-17 21:03 33.675273 -117.871282 219 59ft 0kts
23-Oct-17 21:04 33.675273 -117.871282 219 59ft 0kts
23-Oct-17 21:05 33.675273 -117.871282 219 59ft 0kts
23-Oct-17 21:06 33.675273 -117.871282 219 59ft 0kts
23-Oct-17 21:07 33.675273 -117.871282 219 59ft 0kts
23-Oct-17 21:08 33.675273 -117.871282 219 59ft 0kts
23-Oct-17 21:09 33.674876 -117.871872 219 59ft 0kts
23-Oct-17 21:10 33.674876 -117.871872 219 59ft 0kts
23-Oct-17 21:11 33.674876 -117.871872 219 59ft 0kts
23-Oct-17 21:12 33.674876 -117.871872 219 59ft 0kts
23-Oct-17 21:13 33.674876 -117.871872 219 59ft 0kts
23-Oct-17 21:14 33.674875 -117.871873 219 59ft 0kts
23-Oct-17 21:15 33.674875 -117.871873 219 59ft 0kts
23-Oct-17 21:16 33.674875 -117.871873 219 59ft 0kts
23-Oct-17 21:17 33.674875 -117.871873 219 59ft 0kts
23-Oct-17 21:18 33.674875 -117.871873 219 59ft 0kts
23-Oct-17 21:19 33.674875 -117.871873 219 59ft 0kts
23-Oct-17 21:20 33.674875 -117.871873 219 59ft 0kts
23-Oct-17 21:21 33.674875 -117.871873 219 59ft 0kts
23-Oct-17 21:22 33.674875 -117.871873 219 59ft 0kts
23-Oct-17 21:23 33.674875 -117.871873 219 59ft 0kts
23-Oct-17 21:24 33.674875 -117.871873 219 59ft 0kts
23-Oct-17 21:25 33.674875 -117.871873 219 59ft 0kts
23-Oct-17 21:26 33.674875 -117.871873 219 59ft 0kts
23-Oct-17 21:27 33.674874 -117.871874 219 59ft 0kts
23-Oct-17 21:28 33.676803 -117.869704 27 59ft 28kts
23-Oct-17 21:29 33.680746 -117.866295 116 59ft 0kts
23-Oct-17 21:30 33.680746 -117.866295 116 59ft 0kts
23-Oct-17 21:31 33.672372 -117.870889 209 296ft 72kts
23-Oct-17 21:32 33.657688 -117.890772 235 1060ft 91kts
23-Oct-17 21:33 33.642088 -117.917765 235 1593ft 103kts
23-Oct-17 21:34 33.625224 -117.946623 235 2139ft 106kts
23-Oct-17 21:35 33.611178 -117.977340 265 2725ft 105kts
23-Oct-17 21:36 33.606267 -118.012584 265 3320ft 107kts
23-Oct-17 21:37 33.601430 -118.047886 265 3907ft 106kts
23-Oct-17 21:38 33.596494 -118.086672 265 4008ft 128kts
23-Oct-17 21:39 33.591359 -118.129605 265 4000ft 130kts
23-Oct-17 21:40 33.579562 -118.170376 240 3995ft 132kts
23-Oct-17 21:41 33.563643 -118.208971 240 4033ft 126kts
23-Oct-17 21:42 33.550154 -118.247143 240 4057ft 119kts
23-Oct-17 21:43 33.532157 -118.273839 202 4077ft 104kts
23-Oct-17 21:44 33.510015 -118.301189 217 3697ft 126kts
23-Oct-17 21:45 33.491751 -118.335145 255 3474ft 126kts
23-Oct-17 21:46 33.486374 -118.375045 245 3479ft 110kts
23-Oct-17 21:47 33.457112 -118.375601 175 3498ft 113kts
23-Oct-17 21:48 33.426098 -118.368899 175 3496ft 112kts
23-Oct-17 21:49 33.395396 -118.362304 174 3504ft 109kts
23-Oct-17 21:50 33.370404 -118.368171 267 3511ft 110kts
23-Oct-17 21:51 33.376187 -118.404083 275 3520ft 109kts
23-Oct-17 21:52 33.393630 -118.426190 4 3548ft 118kts
23-Oct-17 21:53 33.425677 -118.415054 15 3387ft 120kts
23-Oct-17 21:54 33.457992 -118.406745 5 3388ft 118kts
23-Oct-17 21:55 33.484710 -118.422885 320 3391ft 109kts
23-Oct-17 21:56 33.507581 -118.425753 104 3394ft 122kts
23-Oct-17 21:57 33.480720 -118.406421 175 3222ft 108kts
23-Oct-17 21:58 33.450233 -118.407280 184 2525ft 114kts
23-Oct-17 21:59 33.421179 -118.405826 177 2186ft 94kts
23-Oct-17 22:00 33.403757 -118.417933 236 1605ft 40kts
23-Oct-17 22:01 33.403923 -118.416902 52 1605ft 30kts
23-Oct-17 22:02 33.407203 -118.411672 329 1605ft 0kts
23-Oct-17 22:03 33.399936 -118.420374 189 1886ft 73kts
23-Oct-17 22:04 33.401889 -118.399406 35 2277ft 103kts
23-Oct-17 22:05 33.428632 -118.377508 34 2194ft 121kts
23-Oct-17 22:06 33.454431 -118.350957 54 2194ft 123kts
23-Oct-17 22:07 33.474815 -118.317723 55 2181ft 123kts
23-Oct-17 22:08 33.495498 -118.285231 55 2167ft 122kts
23-Oct-17 22:09 33.515826 -118.253575 94 2159ft 116kts
23-Oct-17 22:10 33.521849 -118.216733 70 2161ft 119kts
23-Oct-17 22:11 33.546928 -118.195080 15 2148ft 122kts
23-Oct-17 22:12 33.577611 -118.188465 14 2616ft 98kts
23-Oct-17 22:13 33.603038 -118.183352 15 3077ft 90kts
23-Oct-17 22:14 33.627690 -118.179664 15 3567ft 87kts

Navigation Log

Ident Type
Flight plan parsing failed, navigation log unavailable